Time;durP1;ratioP1;P1;durP2;ratioP2;P2;SDS_P1;SDS_P2;PMS_P1;PMS_P2;Temp;Humidity;BMP_temperature;BMP_pressure;BME280_temperature;BME280_humidity;BME280_pressure;Samples;Min_cycle;Max_cycle;Signal;HPM_P1;HPM_P2
2020/12/05 00:01:23;;;;;;;;;;;6.00;75.80;;;;;;4968283;28;20000;-42
2020/12/05 00:03:50;;;;;;;;;;;6.00;75.70;;;;;;4953009;28;19929;-42
2020/12/05 00:06:22;;;;;;;;;;;5.90;75.80;;;;;;4962593;28;20378;-42
2020/12/05 00:08:52;;;;;;;;;;;5.90;75.30;;;;;;4955817;28;19952;-42
2020/12/05 00:11:25;;;;;;;;;;;6.00;75.20;;;;;;4961796;28;19940;-42
2020/12/05 00:13:53;;;;;;;;;;;6.00;75.40;;;;;;4957792;28;19940;-42
2020/12/05 00:16:24;;;;;;;;;;;6.00;75.70;;;;;;4967301;28;19926;-42
2020/12/05 00:18:54;;;;;;;;;;;5.90;75.90;;;;;;4968284;28;20412;-42
2020/12/05 00:21:24;;;;;;;;;;;5.90;76.20;;;;;;4960533;28;20070;-43
2020/12/05 00:23:52;;;;;;;;;;;5.90;76.30;;;;;;4958630;28;19933;-42
2020/12/05 00:26:20;;;;;;;;;;;5.90;76.30;;;;;;4959239;28;20414;-42
2020/12/05 00:28:48;;;;;;;;;;;5.90;76.30;;;;;;4965428;28;19929;-42
2020/12/05 00:31:16;;;;;;;;;;;5.90;76.40;;;;;;4957220;28;19926;-43
2020/12/05 00:33:45;;;;;;;;;;;5.90;76.20;;;;;;4960292;28;19972;-43
2020/12/05 00:36:16;;;;;;;;;;;5.80;75.70;;;;;;4964953;28;20381;-42
2020/12/05 00:38:44;;;;;;;;;;;5.80;75.70;;;;;;4956329;28;20306;-43
2020/12/05 00:41:11;;;;;;;;;;;5.90;75.60;;;;;;4963176;28;19925;-42
2020/12/05 00:43:38;;;;;;;;;;;5.90;75.60;;;;;;4959191;28;20465;-42
2020/12/05 00:46:05;;;;;;;;;;;5.90;75.80;;;;;;4956543;28;19925;-43
2020/12/05 00:48:33;;;;;;;;;;;5.90;76.00;;;;;;4955285;28;19937;-42
2020/12/05 00:51:00;;;;;;;;;;;5.90;76.10;;;;;;4960209;28;19930;-42
2020/12/05 00:53:28;;;;;;;;;;;5.90;76.30;;;;;;4964069;28;19932;-43
2020/12/05 00:55:56;;;;;;;;;;;5.90;76.40;;;;;;4959853;28;20389;-43
2020/12/05 00:58:24;;;;;;;;;;;5.90;76.50;;;;;;4957024;28;20273;-43
2020/12/05 01:00:52;;;;;;;;;;;5.90;76.50;;;;;;4961804;28;19976;-42
2020/12/05 01:03:19;;;;;;;;;;;5.90;76.40;;;;;;4963801;28;19926;-43
2020/12/05 01:05:46;;;;;;;;;;;5.90;76.30;;;;;;4958546;28;19930;-42
2020/12/05 01:08:13;;;;;;;;;;;5.90;76.20;;;;;;4965208;28;19960;-43
2020/12/05 01:10:41;;;;;;;;;;;5.90;76.10;;;;;;4954349;28;20309;-42
2020/12/05 01:13:08;;;;;;;;;;;5.90;76.00;;;;;;4961986;28;19933;-43
2020/12/05 01:15:36;;;;;;;;;;;5.90;76.30;;;;;;4960056;28;19973;-43
2020/12/05 01:18:03;;;;;;;;;;;5.90;76.70;;;;;;4961182;28;20026;-43
2020/12/05 01:20:30;;;;;;;;;;;5.90;77.00;;;;;;4959440;28;19926;-43
2020/12/05 01:22:58;;;;;;;;;;;5.90;77.20;;;;;;4961889;28;20444;-43
2020/12/05 01:25:26;;;;;;;;;;;5.90;77.40;;;;;;4966279;28;19926;-44
2020/12/05 01:27:53;;;;;;;;;;;5.90;77.50;;;;;;4955112;28;19926;-43
2020/12/05 01:30:21;;;;;;;;;;;5.90;77.70;;;;;;4955642;28;20333;-42
2020/12/05 01:32:48;;;;;;;;;;;5.90;77.80;;;;;;4959747;28;20298;-43
2020/12/05 01:35:17;;;;;;;;;;;5.90;77.90;;;;;;4962592;28;20322;-42
2020/12/05 01:37:44;;;;;;;;;;;5.80;78.20;;;;;;4954506;28;19956;-43
2020/12/05 01:40:12;;;;;;;;;;;5.80;78.30;;;;;;4962204;28;19975;-43
2020/12/05 01:42:39;;;;;;;;;;;5.80;78.40;;;;;;4964521;28;20275;-43
2020/12/05 01:45:06;;;;;;;;;;;5.80;78.50;;;;;;4958137;28;19926;-43
2020/12/05 01:47:34;;;;;;;;;;;5.70;78.50;;;;;;4969108;28;19929;-42
2020/12/05 01:50:01;;;;;;;;;;;5.80;78.50;;;;;;4960845;28;19930;-43
2020/12/05 01:52:28;;;;;;;;;;;5.80;78.70;;;;;;4972753;28;20382;-43
2020/12/05 01:54:56;;;;;;;;;;;5.70;78.80;;;;;;4957940;28;19952;-42
2020/12/05 01:57:25;;;;;;;;;;;5.70;78.80;;;;;;4957556;28;20324;-43
2020/12/05 01:59:53;;;;;;;;;;;5.70;78.80;;;;;;4975302;28;19929;-42
2020/12/05 02:02:23;;;;;;;;;;;5.70;78.90;;;;;;4966064;28;20005;-43
2020/12/05 02:05:06;;;;;;;;;;;5.70;79.00;;;;;;4967491;28;20035;-43
2020/12/05 02:07:50;;;;;;;;;;;5.70;79.10;;;;;;4968130;28;19941;-43
2020/12/05 02:10:23;;;;;;;;;;;5.70;79.10;;;;;;4971614;28;19936;-42
2020/12/05 02:12:53;;;;;;;;;;;5.70;79.20;;;;;;4972907;28;19972;-43
2020/12/05 02:15:23;;;;;;;;;;;5.60;79.30;;;;;;4963850;28;19940;-43
2020/12/05 02:18:01;;;;;;;;;;;5.60;79.20;;;;;;4970092;28;20394;-43
2020/12/05 02:20:29;;;;;;;;;;;5.60;79.20;;;;;;4958923;28;19925;-43
2020/12/05 02:22:57;;;;;;;;;;;5.60;79.30;;;;;;4968205;28;19930;-42
2020/12/05 02:25:25;;;;;;;;;;;5.60;79.30;;;;;;4961766;28;20326;-43
2020/12/05 02:27:51;;;;;;;;;;;5.60;79.40;;;;;;4965548;28;19936;-43
2020/12/05 02:30:18;;;;;;;;;;;5.60;79.40;;;;;;4958837;28;19933;-43
2020/12/05 02:32:46;;;;;;;;;;;5.60;79.50;;;;;;4965731;28;19929;-43
2020/12/05 02:35:14;;;;;;;;;;;5.60;79.70;;;;;;4959149;28;19972;-43
2020/12/05 02:37:43;;;;;;;;;;;5.60;79.80;;;;;;4967767;28;20007;-43
2020/12/05 02:40:14;;;;;;;;;;;5.50;79.70;;;;;;4966401;28;20230;-43
2020/12/05 02:42:41;;;;;;;;;;;5.50;79.60;;;;;;4957339;28;20337;-42
2020/12/05 02:45:09;;;;;;;;;;;5.50;79.30;;;;;;4957729;28;19929;-42
2020/12/05 02:47:37;;;;;;;;;;;5.50;79.10;;;;;;4967183;28;19957;-43
2020/12/05 02:50:05;;;;;;;;;;;5.40;79.10;;;;;;4965918;28;19925;-43
2020/12/05 02:52:32;;;;;;;;;;;5.40;79.30;;;;;;4970236;28;19932;-43
2020/12/05 02:54:59;;;;;;;;;;;5.40;79.50;;;;;;4972193;28;19925;-43
2020/12/05 02:57:26;;;;;;;;;;;5.40;79.70;;;;;;4972106;28;19941;-43
2020/12/05 02:59:54;;;;;;;;;;;5.40;79.70;;;;;;4958439;28;19934;-44
2020/12/05 03:02:21;;;;;;;;;;;5.40;79.70;;;;;;4960774;28;19981;-42
2020/12/05 03:04:49;;;;;;;;;;;5.30;79.80;;;;;;4967736;28;19929;-42
2020/12/05 03:07:17;;;;;;;;;;;5.30;79.80;;;;;;4954381;28;20058;-43
2020/12/05 03:09:46;;;;;;;;;;;5.30;79.90;;;;;;4942773;28;20243;-43
2020/12/05 03:12:14;;;;;;;;;;;5.30;79.90;;;;;;4968620;28;20341;-43
2020/12/05 03:14:41;;;;;;;;;;;5.30;79.90;;;;;;4963067;28;19949;-43
2020/12/05 03:17:08;;;;;;;;;;;5.20;80.00;;;;;;4946956;28;19930;-43
2020/12/05 03:19:36;;;;;;;;;;;5.20;80.20;;;;;;4963490;28;19926;-42
2020/12/05 03:22:03;;;;;;;;;;;5.20;80.50;;;;;;4958819;28;19940;-42
2020/12/05 03:24:30;;;;;;;;;;;5.20;80.60;;;;;;4955513;28;19937;-42
2020/12/05 03:26:59;;;;;;;;;;;5.10;80.80;;;;;;4964731;28;19934;-42
2020/12/05 03:29:26;;;;;;;;;;;5.10;81.00;;;;;;4960936;28;19933;-43
2020/12/05 03:32:01;;;;;;;;;;;5.20;81.00;;;;;;4955321;28;20377;-43
2020/12/05 03:34:28;;;;;;;;;;;5.20;81.10;;;;;;4961646;28;20377;-43
2020/12/05 03:36:55;;;;;;;;;;;5.20;81.20;;;;;;4961097;28;20009;-43
2020/12/05 03:39:23;;;;;;;;;;;5.20;81.20;;;;;;4967279;28;19933;-42
2020/12/05 03:41:52;;;;;;;;;;;5.20;81.20;;;;;;4967606;28;19925;-42
2020/12/05 03:44:19;;;;;;;;;;;5.20;81.20;;;;;;4966506;28;19968;-43
2020/12/05 03:46:46;;;;;;;;;;;5.20;81.20;;;;;;4964301;28;20012;-42
2020/12/05 03:49:14;;;;;;;;;;;5.20;81.30;;;;;;4973327;28;19937;-43
2020/12/05 03:51:41;;;;;;;;;;;5.20;81.30;;;;;;4962037;28;20349;-43
2020/12/05 03:54:08;;;;;;;;;;;5.20;81.30;;;;;;4965448;28;19991;-43
2020/12/05 03:56:36;;;;;;;;;;;5.20;81.40;;;;;;4961868;28;20020;-43
2020/12/05 03:59:03;;;;;;;;;;;5.20;81.30;;;;;;4963573;28;19930;-43
2020/12/05 04:01:31;;;;;;;;;;;5.20;81.40;;;;;;4962535;28;20490;-43
2020/12/05 04:03:58;;;;;;;;;;;5.20;81.30;;;;;;4970452;28;19925;-42
2020/12/05 04:06:26;;;;;;;;;;;5.20;81.40;;;;;;4972899;28;19931;-43
2020/12/05 04:08:54;;;;;;;;;;;5.20;81.50;;;;;;4971451;28;20031;-43
2020/12/05 04:11:21;;;;;;;;;;;5.20;81.40;;;;;;4966232;28;19932;-43
2020/12/05 04:13:48;;;;;;;;;;;5.20;81.60;;;;;;4954799;28;19929;-43
2020/12/05 04:16:15;;;;;;;;;;;5.20;81.70;;;;;;4962781;28;20378;-43
2020/12/05 04:18:42;;;;;;;;;;;5.20;81.80;;;;;;4964797;28;19933;-42
2020/12/05 04:21:09;;;;;;;;;;;5.20;81.90;;;;;;4958509;28;19956;-42
2020/12/05 04:23:37;;;;;;;;;;;5.20;81.90;;;;;;4965729;28;20414;-42
2020/12/05 04:26:04;;;;;;;;;;;5.20;81.90;;;;;;4964686;28;19934;-42
2020/12/05 04:28:32;;;;;;;;;;;5.20;81.90;;;;;;4942951;28;19926;-43
2020/12/05 04:31:00;;;;;;;;;;;5.20;82.00;;;;;;4965066;28;19960;-42
2020/12/05 04:33:27;;;;;;;;;;;5.20;82.00;;;;;;4952677;28;20401;-42
2020/12/05 04:35:55;;;;;;;;;;;5.20;82.10;;;;;;4966880;28;19934;-43
2020/12/05 04:38:23;;;;;;;;;;;5.20;82.20;;;;;;4962870;28;19933;-43
2020/12/05 04:40:54;;;;;;;;;;;5.20;82.10;;;;;;4955482;28;20433;-43
2020/12/05 04:43:22;;;;;;;;;;;5.20;82.20;;;;;;4959681;28;19925;-43
2020/12/05 04:45:50;;;;;;;;;;;5.20;82.20;;;;;;4957822;28;19940;-43
2020/12/05 04:48:17;;;;;;;;;;;5.20;82.20;;;;;;4950168;28;19961;-42
2020/12/05 04:50:47;;;;;;;;;;;5.20;82.30;;;;;;4961230;28;19949;-43
2020/12/05 04:53:18;;;;;;;;;;;5.20;82.30;;;;;;4946055;28;21078;-43
2020/12/05 04:55:46;;;;;;;;;;;5.20;82.30;;;;;;4965246;28;19936;-43
2020/12/05 04:58:15;;;;;;;;;;;5.30;82.30;;;;;;4968900;28;20020;-41
2020/12/05 05:00:42;;;;;;;;;;;5.30;82.40;;;;;;4970328;28;20444;-43
2020/12/05 05:03:10;;;;;;;;;;;5.30;82.40;;;;;;4963223;28;20457;-42
2020/12/05 05:05:38;;;;;;;;;;;5.30;82.40;;;;;;4961839;28;19984;-43
2020/12/05 05:08:05;;;;;;;;;;;5.30;82.30;;;;;;4963296;28;20008;-43
2020/12/05 05:10:35;;;;;;;;;;;5.30;82.40;;;;;;4956750;28;20317;-43
2020/12/05 05:13:21;;;;;;;;;;;5.30;82.50;;;;;;4961154;28;19933;-43
2020/12/05 05:15:49;;;;;;;;;;;5.30;82.50;;;;;;4967430;28;19929;-43
2020/12/05 05:18:16;;;;;;;;;;;5.30;82.50;;;;;;4963756;28;20301;-43
2020/12/05 05:20:46;;;;;;;;;;;5.30;82.60;;;;;;4965038;28;20328;-42
2020/12/05 05:23:17;;;;;;;;;;;5.30;82.60;;;;;;4958627;28;20371;-42
2020/12/05 05:25:48;;;;;;;;;;;5.30;82.50;;;;;;4960367;28;19995;-43
2020/12/05 05:28:24;;;;;;;;;;;5.30;82.50;;;;;;4959042;28;19940;-43
2020/12/05 05:30:56;;;;;;;;;;;5.30;82.50;;;;;;4966961;28;19925;-43
2020/12/05 05:33:24;;;;;;;;;;;5.30;82.50;;;;;;4968249;28;19926;-43
2020/12/05 05:35:51;;;;;;;;;;;5.30;82.70;;;;;;4967050;28;19925;-42
2020/12/05 05:38:22;;;;;;;;;;;5.30;82.70;;;;;;4965894;28;19926;-43
2020/12/05 05:40:52;;;;;;;;;;;5.30;82.70;;;;;;4968796;28;19930;-43
2020/12/05 05:43:19;;;;;;;;;;;5.20;82.70;;;;;;4959432;28;19933;-42
2020/12/05 05:45:47;;;;;;;;;;;5.30;82.70;;;;;;4963623;28;19930;-43
2020/12/05 05:48:14;;;;;;;;;;;5.30;82.70;;;;;;4957898;28;19937;-43
2020/12/05 05:50:42;;;;;;;;;;;5.30;82.70;;;;;;4968237;28;20290;-43
2020/12/05 05:53:11;;;;;;;;;;;5.30;82.70;;;;;;4964663;28;20010;-43
2020/12/05 05:55:44;;;;;;;;;;;5.30;82.80;;;;;;4972244;28;19933;-43
2020/12/05 05:58:12;;;;;;;;;;;5.30;82.80;;;;;;4962453;28;19936;-43
2020/12/05 06:00:43;;;;;;;;;;;5.30;82.80;;;;;;4970011;28;19933;-43
2020/12/05 06:03:23;;;;;;;;;;;5.30;82.80;;;;;;4967523;28;20024;-42
2020/12/05 06:05:52;;;;;;;;;;;5.30;82.80;;;;;;4966924;28;19934;-43
2020/12/05 06:08:20;;;;;;;;;;;5.30;82.80;;;;;;4948352;28;19934;-42
2020/12/05 06:10:58;;;;;;;;;;;5.40;82.80;;;;;;4964919;28;19929;-42
2020/12/05 06:13:29;;;;;;;;;;;5.40;82.80;;;;;;4956763;28;19969;-43
2020/12/05 06:15:57;;;;;;;;;;;5.40;82.70;;;;;;4962455;28;19926;-42
2020/12/05 06:18:25;;;;;;;;;;;5.40;82.70;;;;;;4962814;28;19963;-43
2020/12/05 06:20:53;;;;;;;;;;;5.40;82.70;;;;;;4962389;28;20445;-43
2020/12/05 06:23:22;;;;;;;;;;;5.40;82.60;;;;;;4975537;28;19936;-43
2020/12/05 06:25:50;;;;;;;;;;;5.40;82.50;;;;;;4973528;28;19936;-43
2020/12/05 06:28:19;;;;;;;;;;;5.40;82.50;;;;;;4967226;28;19930;-43
2020/12/05 06:30:47;;;;;;;;;;;5.30;82.50;;;;;;4962869;28;19925;-42
2020/12/05 06:33:37;;;;;;;;;;;5.30;82.40;;;;;;4956473;28;19934;-43
2020/12/05 06:36:25;;;;;;;;;;;5.30;82.40;;;;;;4962928;28;20012;-42
2020/12/05 06:39:11;;;;;;;;;;;5.30;82.50;;;;;;4949841;28;19926;-43
2020/12/05 06:41:40;;;;;;;;;;;5.30;82.60;;;;;;4959186;28;19937;-43
2020/12/05 06:44:09;;;;;;;;;;;5.30;82.70;;;;;;4961789;28;20374;-43
2020/12/05 06:46:52;;;;;;;;;;;5.30;82.80;;;;;;4963733;28;19926;-43
2020/12/05 06:49:39;;;;;;;;;;;5.30;82.90;;;;;;4962222;28;20409;-43
2020/12/05 06:52:25;;;;;;;;;;;5.30;82.90;;;;;;4963272;28;19929;-43
2020/12/05 06:54:58;;;;;;;;;;;5.30;82.90;;;;;;4968142;28;20255;-42
2020/12/05 06:57:26;;;;;;;;;;;5.30;82.80;;;;;;4949915;28;20381;-43
2020/12/05 07:00:16;;;;;;;;;;;5.30;82.80;;;;;;4951962;28;20546;-42
2020/12/05 07:02:51;;;;;;;;;;;5.30;82.70;;;;;;4958560;28;19935;-42
2020/12/05 07:05:19;;;;;;;;;;;5.30;82.60;;;;;;4964599;28;19981;-43
2020/12/05 07:08:00;;;;;;;;;;;5.30;82.60;;;;;;4963141;28;19964;-43
2020/12/05 07:10:46;;;;;;;;;;;5.20;82.50;;;;;;4967002;28;20015;-43
2020/12/05 07:13:20;;;;;;;;;;;5.20;82.60;;;;;;4978234;28;20483;-43
2020/12/05 07:15:49;;;;;;;;;;;5.20;82.60;;;;;;4975858;28;20336;-42
2020/12/05 07:18:24;;;;;;;;;;;5.20;82.70;;;;;;4947803;28;20395;-43
2020/12/05 07:20:52;;;;;;;;;;;5.20;82.70;;;;;;4961753;28;20012;-42
2020/12/05 07:23:19;;;;;;;;;;;5.20;82.80;;;;;;4962534;28;20024;-42
2020/12/05 07:25:49;;;;;;;;;;;5.20;82.80;;;;;;4973347;28;20169;-43
2020/12/05 07:28:17;;;;;;;;;;;5.20;82.90;;;;;;4966230;28;19930;-42
2020/12/05 07:30:46;;;;;;;;;;;5.20;83.00;;;;;;4963400;28;19926;-42
2020/12/05 07:33:13;;;;;;;;;;;5.30;83.10;;;;;;4963936;28;20417;-43
2020/12/05 07:35:40;;;;;;;;;;;5.30;83.20;;;;;;4963590;28;19935;-42
2020/12/05 07:38:11;;;;;;;;;;;5.30;83.20;;;;;;4961488;28;19929;-43
2020/12/05 07:40:39;;;;;;;;;;;5.30;83.30;;;;;;4962039;28;19937;-43
2020/12/05 07:43:15;;;;;;;;;;;5.30;83.40;;;;;;4969827;28;19930;-42
2020/12/05 07:45:42;;;;;;;;;;;5.30;83.60;;;;;;4963673;28;20018;-43
2020/12/05 07:48:10;;;;;;;;;;;5.30;83.40;;;;;;4958988;28;20288;-43
2020/12/05 07:50:37;;;;;;;;;;;5.30;83.60;;;;;;4970723;28;19973;-43
2020/12/05 07:53:05;;;;;;;;;;;5.30;83.70;;;;;;4973898;28;19977;-42
2020/12/05 07:55:32;;;;;;;;;;;5.40;83.60;;;;;;4966846;28;20030;-43
2020/12/05 07:57:59;;;;;;;;;;;5.40;83.60;;;;;;4966577;28;19929;-42
2020/12/05 08:00:28;;;;;;;;;;;5.40;83.70;;;;;;4957143;28;19933;-42
2020/12/05 08:03:12;;;;;;;;;;;5.40;83.70;;;;;;4956293;28;19999;-43
2020/12/05 08:05:46;;;;;;;;;;;5.40;83.60;;;;;;4969273;28;20267;-43
2020/12/05 08:08:16;;;;;;;;;;;5.40;83.60;;;;;;4963989;28;20275;-42
2020/12/05 08:10:44;;;;;;;;;;;5.40;83.60;;;;;;4964858;28;19933;-43
2020/12/05 08:13:28;;;;;;;;;;;5.40;83.60;;;;;;4962229;28;20459;-43
2020/12/05 08:16:03;;;;;;;;;;;5.40;83.60;;;;;;4957957;28;19933;-43
2020/12/05 08:18:40;;;;;;;;;;;5.50;83.50;;;;;;4966360;28;19929;-43
2020/12/05 08:21:08;;;;;;;;;;;5.50;83.50;;;;;;4956962;28;19929;-43
2020/12/05 08:23:40;;;;;;;;;;;5.50;83.50;;;;;;4967387;28;19930;-43
2020/12/05 08:26:09;;;;;;;;;;;5.50;83.60;;;;;;4961148;28;20015;-43
2020/12/05 08:28:37;;;;;;;;;;;5.50;83.60;;;;;;4959939;28;19937;-42
2020/12/05 08:31:06;;;;;;;;;;;5.50;83.60;;;;;;4958335;28;19936;-43
2020/12/05 08:33:47;;;;;;;;;;;5.50;83.70;;;;;;4969591;28;20873;-43
2020/12/05 08:36:31;;;;;;;;;;;5.50;83.70;;;;;;4974894;28;19930;-43
2020/12/05 08:39:09;;;;;;;;;;;5.50;83.80;;;;;;4961467;28;20033;-43
2020/12/05 08:41:43;;;;;;;;;;;5.60;83.80;;;;;;4959650;28;19965;-42
2020/12/05 08:44:12;;;;;;;;;;;5.60;83.70;;;;;;4970223;28;19925;-42
2020/12/05 08:46:40;;;;;;;;;;;5.60;83.70;;;;;;4964518;28;19952;-43
2020/12/05 08:49:15;;;;;;;;;;;5.60;83.70;;;;;;4967799;28;19996;-43
2020/12/05 08:51:50;;;;;;;;;;;5.60;83.60;;;;;;4952305;28;20461;-42
2020/12/05 08:54:18;;;;;;;;;;;5.60;83.60;;;;;;4971434;28;19926;-42
2020/12/05 08:56:45;;;;;;;;;;;5.60;83.70;;;;;;4964797;28;19936;-42
2020/12/05 08:59:24;;;;;;;;;;;5.60;83.70;;;;;;4970229;28;20412;-42
2020/12/05 09:01:52;;;;;;;;;;;5.60;83.70;;;;;;4965442;28;19929;-43
2020/12/05 09:04:26;;;;;;;;;;;5.60;83.80;;;;;;4969949;28;20375;-43
2020/12/05 09:07:26;;;;;;;;;;;5.60;83.80;;;;;;4975444;28;19944;-42
2020/12/05 09:09:54;;;;;;;;;;;5.70;83.90;;;;;;4945390;28;19937;-42
2020/12/05 09:12:21;;;;;;;;;;;5.70;83.90;;;;;;4968992;28;19960;-42
2020/12/05 09:14:48;;;;;;;;;;;5.70;84.00;;;;;;4966021;28;19925;-43
2020/12/05 09:17:26;;;;;;;;;;;5.70;83.90;;;;;;4958520;28;19987;-42
2020/12/05 09:20:08;;;;;;;;;;;5.70;84.00;;;;;;4960928;28;19937;-42
2020/12/05 09:22:36;;;;;;;;;;;5.70;83.90;;;;;;4966152;28;19926;-43
2020/12/05 09:25:05;;;;;;;;;;;5.70;84.00;;;;;;4954992;28;19951;-42
2020/12/05 09:27:39;;;;;;;;;;;5.80;84.00;;;;;;4961555;28;19926;-42
2020/12/05 09:30:07;;;;;;;;;;;5.80;83.90;;;;;;4958098;28;19925;-42
2020/12/05 09:32:42;;;;;;;;;;;5.80;83.90;;;;;;4973431;28;20306;-42
2020/12/05 09:35:10;;;;;;;;;;;5.90;84.00;;;;;;4957011;28;20405;-42
2020/12/05 09:37:37;;;;;;;;;;;5.90;84.00;;;;;;4960534;28;20452;-43
2020/12/05 09:40:06;;;;;;;;;;;5.90;84.00;;;;;;4971815;28;19941;-43
2020/12/05 09:42:35;;;;;;;;;;;5.90;84.10;;;;;;4959446;28;20458;-43
2020/12/05 09:45:03;;;;;;;;;;;6.00;84.10;;;;;;4963031;28;19925;-42
2020/12/05 09:47:32;;;;;;;;;;;6.00;84.10;;;;;;4960628;28;19930;-43
2020/12/05 09:49:59;;;;;;;;;;;6.10;84.20;;;;;;4957169;28;19930;-42
2020/12/05 09:52:26;;;;;;;;;;;6.10;84.20;;;;;;4952708;28;19941;-42
2020/12/05 09:54:53;;;;;;;;;;;6.20;84.30;;;;;;4962913;28;19973;-42
2020/12/05 09:57:20;;;;;;;;;;;6.20;84.30;;;;;;4955131;28;19929;-43
2020/12/05 09:59:47;;;;;;;;;;;6.20;84.30;;;;;;4955635;28;19936;-43
2020/12/05 10:02:15;;;;;;;;;;;6.30;84.30;;;;;;4962583;28;19932;-43
2020/12/05 10:04:45;;;;;;;;;;;6.30;84.20;;;;;;4954337;28;19932;-42
2020/12/05 10:07:12;;;;;;;;;;;6.40;84.20;;;;;;4949146;28;20718;-43
2020/12/05 10:09:39;;;;;;;;;;;6.40;84.20;;;;;;4960920;28;19952;-42
2020/12/05 10:12:07;;;;;;;;;;;6.40;83.90;;;;;;4956716;28;19930;-43
2020/12/05 10:14:34;;;;;;;;;;;6.50;83.60;;;;;;4968724;28;19930;-43
2020/12/05 10:17:02;;;;;;;;;;;6.40;83.30;;;;;;4958585;28;20292;-43
2020/12/05 10:19:30;;;;;;;;;;;6.40;83.40;;;;;;4951490;28;19944;-42
2020/12/05 10:21:57;;;;;;;;;;;6.40;83.50;;;;;;4952372;28;20324;-43
2020/12/05 10:24:24;;;;;;;;;;;6.40;83.50;;;;;;4970563;28;19981;-42
2020/12/05 10:26:53;;;;;;;;;;;6.40;83.40;;;;;;4956261;28;19973;-41
2020/12/05 10:29:21;;;;;;;;;;;6.30;83.40;;;;;;4959355;28;19937;-43
2020/12/05 10:31:51;;;;;;;;;;;6.30;83.70;;;;;;4970026;28;20008;-41
2020/12/05 10:34:19;;;;;;;;;;;6.30;83.70;;;;;;4967662;28;19975;-43
2020/12/05 10:36:48;;;;;;;;;;;6.30;83.90;;;;;;4964102;28;19937;-42
2020/12/05 10:39:16;;;;;;;;;;;6.30;84.10;;;;;;4958609;28;20294;-42
2020/12/05 10:41:43;;;;;;;;;;;6.30;84.30;;;;;;4968208;28;19930;-43
2020/12/05 10:44:11;;;;;;;;;;;6.40;84.40;;;;;;4969923;28;19933;-42
2020/12/05 10:46:42;;;;;;;;;;;6.40;84.50;;;;;;4960935;28;20031;-42
2020/12/05 10:49:10;;;;;;;;;;;6.40;84.50;;;;;;4960068;28;19933;-42
2020/12/05 10:51:37;;;;;;;;;;;6.40;84.50;;;;;;4966213;28;19926;-43
2020/12/05 10:54:06;;;;;;;;;;;6.40;84.50;;;;;;4962226;28;19930;-42
2020/12/05 10:56:37;;;;;;;;;;;6.40;84.80;;;;;;4963095;28;19938;-42
2020/12/05 10:59:05;;;;;;;;;;;6.40;84.80;;;;;;4953425;28;19933;-42
2020/12/05 11:01:32;;;;;;;;;;;6.50;84.60;;;;;;4959262;28;19962;-43
2020/12/05 11:03:59;;;;;;;;;;;6.50;84.70;;;;;;4964452;28;20365;-42
2020/12/05 11:06:27;;;;;;;;;;;6.50;85.00;;;;;;4966402;28;19933;-42
2020/12/05 11:08:54;;;;;;;;;;;6.60;85.00;;;;;;4952566;28;19936;-42
2020/12/05 11:11:22;;;;;;;;;;;6.60;84.70;;;;;;4965323;28;19933;-42
2020/12/05 11:13:50;;;;;;;;;;;6.70;84.70;;;;;;4964290;28;19936;-43
2020/12/05 11:16:21;;;;;;;;;;;6.70;84.60;;;;;;4962821;28;19926;-42
2020/12/05 11:18:50;;;;;;;;;;;6.70;84.50;;;;;;4960967;28;20373;-43
2020/12/05 11:21:17;;;;;;;;;;;6.80;84.50;;;;;;4956447;28;19926;-42
2020/12/05 11:23:44;;;;;;;;;;;6.70;84.30;;;;;;4964994;28;20340;-42
2020/12/05 11:26:18;;;;;;;;;;;6.70;84.40;;;;;;4960372;28;20337;-42
2020/12/05 11:28:45;;;;;;;;;;;6.70;84.20;;;;;;4962753;28;19926;-42
2020/12/05 11:31:15;;;;;;;;;;;6.70;84.00;;;;;;4961070;28;19972;-43
2020/12/05 11:33:43;;;;;;;;;;;6.70;84.00;;;;;;4970287;28;20390;-42
2020/12/05 11:36:11;;;;;;;;;;;6.80;84.10;;;;;;4951823;28;20479;-42
2020/12/05 11:38:39;;;;;;;;;;;6.90;83.80;;;;;;4965639;28;19936;-43
2020/12/05 11:41:06;;;;;;;;;;;6.90;83.60;;;;;;4944532;28;19980;-42
2020/12/05 11:43:33;;;;;;;;;;;7.00;83.60;;;;;;4959179;28;19933;-43
2020/12/05 11:46:01;;;;;;;;;;;7.00;83.60;;;;;;4962645;28;19926;-42
2020/12/05 11:48:28;;;;;;;;;;;7.00;83.60;;;;;;4963726;28;20023;-43
2020/12/05 11:50:56;;;;;;;;;;;7.10;83.40;;;;;;4967706;28;19929;-43
2020/12/05 11:53:23;;;;;;;;;;;7.10;83.40;;;;;;4958959;28;19930;-42
2020/12/05 11:55:52;;;;;;;;;;;7.20;83.30;;;;;;4959174;28;19933;-42
2020/12/05 11:58:20;;;;;;;;;;;7.20;83.20;;;;;;4968853;28;19937;-43
2020/12/05 12:00:47;;;;;;;;;;;7.20;82.90;;;;;;4941359;28;19929;-42
2020/12/05 12:03:14;;;;;;;;;;;7.30;81.80;;;;;;4941013;28;19936;-42
2020/12/05 12:05:42;;;;;;;;;;;7.30;81.70;;;;;;4958509;28;20418;-43
2020/12/05 12:08:09;;;;;;;;;;;7.30;81.60;;;;;;4964403;28;20331;-43
2020/12/05 12:10:39;;;;;;;;;;;7.20;81.50;;;;;;4961355;28;19937;-42
2020/12/05 12:13:07;;;;;;;;;;;7.30;81.50;;;;;;4949279;28;20278;-43
2020/12/05 12:15:34;;;;;;;;;;;7.30;81.30;;;;;;4957449;28;21833;-42
2020/12/05 12:18:01;;;;;;;;;;;7.30;81.50;;;;;;4959571;28;19934;-42
2020/12/05 12:20:28;;;;;;;;;;;7.30;81.40;;;;;;4964384;28;19925;-42
2020/12/05 12:22:55;;;;;;;;;;;7.30;81.00;;;;;;4962129;28;20386;-43
2020/12/05 12:25:22;;;;;;;;;;;7.30;81.10;;;;;;4961378;28;20031;-42
2020/12/05 12:27:50;;;;;;;;;;;7.30;81.10;;;;;;4965870;28;20400;-42
2020/12/05 12:30:17;;;;;;;;;;;7.20;81.30;;;;;;4964645;28;19926;-42
2020/12/05 12:32:44;;;;;;;;;;;7.30;81.10;;;;;;4962265;28;19934;-42
2020/12/05 12:35:11;;;;;;;;;;;7.30;81.10;;;;;;4964247;28;19929;-42
2020/12/05 12:37:39;;;;;;;;;;;7.30;81.20;;;;;;4946967;28;19937;-42
2020/12/05 12:40:07;;;;;;;;;;;7.30;81.30;;;;;;4964703;28;19948;-42
2020/12/05 12:42:34;;;;;;;;;;;7.20;81.50;;;;;;4968909;28;20330;-42
2020/12/05 12:45:01;;;;;;;;;;;7.20;81.60;;;;;;4975606;28;20672;-42
2020/12/05 12:50:00;;;;;;;;;;;7.20;81.30;;;;;;4970080;28;19933;-42
2020/12/05 12:52:27;;;;;;;;;;;7.20;80.90;;;;;;4972553;28;19949;-42
2020/12/05 12:54:56;;;;;;;;;;;7.20;81.00;;;;;;4971922;28;20301;-42
2020/12/05 12:57:28;;;;;;;;;;;7.20;81.30;;;;;;4973611;28;19934;-43
2020/12/05 12:59:55;;;;;;;;;;;7.10;81.40;;;;;;4952236;28;20109;-42
2020/12/05 13:02:24;;;;;;;;;;;7.10;81.70;;;;;;4961418;28;19929;-42
2020/12/05 13:04:51;;;;;;;;;;;7.10;81.80;;;;;;4968526;28;19979;-42
2020/12/05 13:07:20;;;;;;;;;;;7.10;81.80;;;;;;4963333;28;19949;-42
2020/12/05 13:09:49;;;;;;;;;;;7.10;81.60;;;;;;4979229;28;19957;-43
2020/12/05 13:12:15;;;;;;;;;;;7.10;81.70;;;;;;4977127;28;20014;-43
2020/12/05 13:14:49;;;;;;;;;;;7.10;81.60;;;;;;4970125;28;19930;-42
2020/12/05 13:17:16;;;;;;;;;;;7.10;81.70;;;;;;4977683;28;19929;-43
2020/12/05 13:19:43;;;;;;;;;;;7.20;81.70;;;;;;4963317;28;19929;-42
2020/12/05 13:22:12;;;;;;;;;;;7.20;81.80;;;;;;4964699;28;21735;-43
2020/12/05 13:24:40;;;;;;;;;;;7.20;81.90;;;;;;4966207;28;19929;-42
2020/12/05 13:27:08;;;;;;;;;;;7.20;81.60;;;;;;4942646;28;20387;-41
2020/12/05 13:29:39;;;;;;;;;;;7.20;81.20;;;;;;4960572;28;19925;-43
2020/12/05 13:32:07;;;;;;;;;;;7.30;81.30;;;;;;4965281;28;20629;-42
2020/12/05 13:34:34;;;;;;;;;;;7.30;81.10;;;;;;4947714;28;19937;-42
2020/12/05 13:37:01;;;;;;;;;;;7.30;80.70;;;;;;4960257;28;19929;-42
2020/12/05 13:39:33;;;;;;;;;;;7.30;80.70;;;;;;4961673;28;20353;-43
2020/12/05 13:42:01;;;;;;;;;;;7.30;80.90;;;;;;4963994;28;19968;-42
2020/12/05 13:44:28;;;;;;;;;;;7.30;81.00;;;;;;4966528;28;19926;-42
2020/12/05 13:47:00;;;;;;;;;;;7.30;80.70;;;;;;4972747;28;19936;-43
2020/12/05 13:49:33;;;;;;;;;;;7.30;80.70;;;;;;4976717;28;20359;-42
2020/12/05 13:52:07;;;;;;;;;;;7.30;80.60;;;;;;4962089;28;20012;-43
2020/12/05 13:54:36;;;;;;;;;;;7.30;80.60;;;;;;4956637;28;20281;-42
2020/12/05 13:57:04;;;;;;;;;;;7.30;80.80;;;;;;4968562;28;19996;-42
2020/12/05 13:59:32;;;;;;;;;;;7.30;80.80;;;;;;4972910;28;19930;-42
2020/12/05 14:02:00;;;;;;;;;;;7.30;80.70;;;;;;4950773;28;19926;-43
2020/12/05 14:04:29;;;;;;;;;;;7.30;80.50;;;;;;4961420;28;19987;-43
2020/12/05 14:06:57;;;;;;;;;;;7.30;80.10;;;;;;4968738;28;19929;-43
2020/12/05 14:09:25;;;;;;;;;;;7.30;80.20;;;;;;4961167;28;20459;-42
2020/12/05 14:11:52;;;;;;;;;;;7.30;80.20;;;;;;4969180;28;20309;-42
2020/12/05 14:14:19;;;;;;;;;;;7.30;80.20;;;;;;4948112;28;19925;-42
2020/12/05 14:16:49;;;;;;;;;;;7.30;80.20;;;;;;4959511;28;20022;-43
2020/12/05 14:19:17;;;;;;;;;;;7.20;80.10;;;;;;4963790;28;19933;-43
2020/12/05 14:21:43;;;;;;;;;;;7.20;80.10;;;;;;4964855;28;19926;-43
2020/12/05 14:24:10;;;;;;;;;;;7.20;80.20;;;;;;4970671;28;19980;-43
2020/12/05 14:26:38;;;;;;;;;;;7.20;80.20;;;;;;4968723;28;19972;-42
2020/12/05 14:29:05;;;;;;;;;;;7.10;80.20;;;;;;4966677;28;19933;-42
2020/12/05 14:31:32;;;;;;;;;;;7.10;80.20;;;;;;4942911;28;19930;-42
2020/12/05 14:34:00;;;;;;;;;;;7.10;80.30;;;;;;4958623;28;19930;-42
2020/12/05 14:36:27;;;;;;;;;;;7.00;80.30;;;;;;4961563;28;19933;-43
2020/12/05 14:38:55;;;;;;;;;;;7.00;80.30;;;;;;4962847;28;19929;-42
2020/12/05 14:41:22;;;;;;;;;;;7.00;80.30;;;;;;4960258;28;19940;-42
2020/12/05 14:43:49;;;;;;;;;;;7.00;80.50;;;;;;4963192;28;20284;-43
2020/12/05 14:46:17;;;;;;;;;;;7.00;80.70;;;;;;4971314;28;19936;-43